Time;durP1;ratioP1;P1;durP2;ratioP2;P2;SDS_P1;SDS_P2;PMS_P1;PMS_P2;Temp;Humidity;BMP_temperature;BMP_pressure;BME280_temperature;BME280_humidity;BME280_pressure;Samples;Min_cycle;Max_cycle;Signal;HPM_P1;HPM_P2
2021/03/04 00:01:56;;;;;;;64.67;36.17;;;11.60;99.90;;;;;;5105858;28;20179;-83
2021/03/04 00:04:22;;;;;;;68.77;38.40;;;11.60;99.90;;;;;;5111389;27;20646;-83
2021/03/04 00:06:47;;;;;;;73.37;39.53;;;11.60;99.90;;;;;;5103775;28;20216;-83
2021/03/04 00:09:13;;;;;;;87.70;50.00;;;11.60;99.90;;;;;;5094092;28;20218;-82
2021/03/04 00:11:38;;;;;;;92.20;52.63;;;11.70;99.90;;;;;;5078666;28;21690;-82
2021/03/04 00:14:04;;;;;;;97.47;54.93;;;11.80;99.90;;;;;;5085346;28;20178;-83
2021/03/04 00:16:30;;;;;;;105.93;59.93;;;11.90;99.90;;;;;;5090151;28;20187;-83
2021/03/04 00:18:55;;;;;;;104.97;59.73;;;11.90;99.90;;;;;;5089730;28;20171;-83
2021/03/04 00:21:21;;;;;;;101.60;56.57;;;11.80;99.90;;;;;;5089454;28;20723;-83
2021/03/04 00:23:47;;;;;;;98.67;57.93;;;11.90;99.90;;;;;;5092428;28;20242;-82
2021/03/04 00:26:12;;;;;;;105.17;59.53;;;11.90;99.90;;;;;;5070086;28;20635;-82
2021/03/04 00:28:38;;;;;;;101.60;59.57;;;12.00;99.90;;;;;;5074735;28;20700;-82
2021/03/04 00:31:03;;;;;;;106.23;61.00;;;12.00;99.90;;;;;;5082004;28;20219;-82
2021/03/04 00:33:29;;;;;;;105.83;58.87;;;12.00;99.90;;;;;;5090104;28;20186;-83
2021/03/04 00:35:55;;;;;;;97.77;55.87;;;12.00;99.90;;;;;;5077150;28;20199;-82
2021/03/04 00:38:21;;;;;;;94.03;53.60;;;12.10;99.90;;;;;;5106500;28;20248;-81
2021/03/04 00:40:46;;;;;;;88.43;53.07;;;12.10;99.90;;;;;;5105270;28;20187;-82
2021/03/04 00:43:13;;;;;;;85.07;49.87;;;12.10;99.90;;;;;;5108501;27;20535;-82
2021/03/04 00:45:39;;;;;;;93.37;51.40;;;12.10;99.90;;;;;;5089189;28;20214;-82
2021/03/04 00:48:07;;;;;;;84.57;49.67;;;12.10;99.90;;;;;;5088145;28;20206;-83
2021/03/04 00:50:32;;;;;;;92.83;52.80;;;12.00;99.90;;;;;;5105783;28;20181;-83
2021/03/04 00:52:58;;;;;;;89.73;53.43;;;11.90;99.90;;;;;;5107072;27;20265;-82
2021/03/04 00:55:24;;;;;;;97.97;55.53;;;11.80;99.90;;;;;;5065491;28;20175;-82
2021/03/04 00:57:49;;;;;;;97.10;56.77;;;11.70;99.90;;;;;;5084788;28;20209;-82
2021/03/04 01:00:15;;;;;;;100.40;57.47;;;11.90;99.90;;;;;;5070698;28;20599;-82
2021/03/04 01:02:41;;;;;;;102.33;58.50;;;12.00;99.90;;;;;;5076158;28;20167;-82
2021/03/04 01:05:07;;;;;;;98.83;57.57;;;12.00;99.90;;;;;;5085915;28;20525;-82
2021/03/04 01:07:32;;;;;;;108.27;61.57;;;11.90;99.90;;;;;;5073045;28;20203;-83
2021/03/04 01:09:58;;;;;;;117.83;64.27;;;11.80;99.90;;;;;;5091321;28;20698;-83
2021/03/04 01:12:24;;;;;;;129.83;69.03;;;11.90;99.90;;;;;;5073260;28;20276;-82
2021/03/04 01:14:49;;;;;;;121.90;67.37;;;11.90;99.90;;;;;;5102999;28;20170;-82
2021/03/04 01:17:16;;;;;;;124.27;67.23;;;11.80;99.90;;;;;;5088043;28;20208;-82
2021/03/04 01:19:42;;;;;;;124.17;65.93;;;11.60;99.90;;;;;;5094798;28;20210;-82
2021/03/04 01:22:07;;;;;;;115.90;64.20;;;11.20;99.90;;;;;;5086538;28;20268;-82
2021/03/04 01:24:33;;;;;;;114.73;61.33;;;11.00;99.90;;;;;;5070465;28;20187;-82
2021/03/04 01:26:59;;;;;;;118.70;61.70;;;10.90;99.90;;;;;;5084901;28;20187;-82
2021/03/04 01:29:25;;;;;;;117.00;63.07;;;10.90;99.90;;;;;;5084178;28;20256;-82
2021/03/04 01:31:50;;;;;;;112.53;62.43;;;10.70;99.90;;;;;;5087845;28;20544;-83
2021/03/04 01:34:16;;;;;;;115.97;61.87;;;10.80;99.90;;;;;;5087117;28;20307;-82
2021/03/04 01:36:42;;;;;;;119.97;64.20;;;10.80;99.90;;;;;;5074115;28;20194;-82
2021/03/04 01:39:07;;;;;;;115.40;61.67;;;10.80;99.90;;;;;;5065304;28;20524;-82
2021/03/04 01:41:33;;;;;;;115.77;58.97;;;10.70;99.90;;;;;;5089344;28;20245;-83
2021/03/04 01:43:59;;;;;;;112.17;59.73;;;10.40;99.90;;;;;;5100628;28;20172;-82
2021/03/04 01:46:25;;;;;;;116.87;62.43;;;10.50;99.90;;;;;;5085079;28;20189;-82
2021/03/04 01:48:52;;;;;;;120.07;61.53;;;10.60;99.90;;;;;;5072808;28;20272;-83
2021/03/04 01:51:19;;;;;;;136.73;65.27;;;10.70;99.90;;;;;;5102625;28;20257;-82
2021/03/04 01:53:44;;;;;;;151.17;71.03;;;10.80;99.90;;;;;;5089010;28;20595;-82
2021/03/04 01:56:11;;;;;;;150.13;71.23;;;10.80;99.90;;;;;;5104340;28;20249;-82
2021/03/04 01:58:37;;;;;;;168.80;77.00;;;10.60;99.90;;;;;;5091355;28;20204;-83
2021/03/04 02:01:03;;;;;;;158.67;74.23;;;10.60;99.90;;;;;;5071086;28;20964;-83
2021/03/04 02:03:29;;;;;;;172.30;77.30;;;10.60;99.90;;;;;;5105890;28;20614;-82
2021/03/04 02:05:54;;;;;;;163.37;76.67;;;10.60;99.90;;;;;;5100501;28;20191;-83
2021/03/04 02:09:00;;;;;;;168.20;77.07;;;10.60;99.90;;;;;;5084246;28;20212;-82
2021/03/04 02:11:35;;;;;;;158.57;73.93;;;10.70;99.90;;;;;;5007408;28;20695;-83
2021/03/04 02:14:13;;;;;;;160.77;75.20;;;10.80;99.90;;;;;;5017655;28;20731;-83
2021/03/04 02:16:44;;;;;;;162.63;75.17;;;10.70;99.90;;;;;;5074727;28;20268;-82
2021/03/04 02:19:40;;;;;;;156.50;73.80;;;10.80;99.90;;;;;;5081122;28;20285;-82
2021/03/04 02:22:35;;;;;;;157.70;72.30;;;10.70;99.90;;;;;;5105085;28;20191;-83
2021/03/04 02:25:17;;;;;;;148.57;69.80;;;10.80;99.90;;;;;;5090850;28;20234;-82
2021/03/04 02:27:44;;;;;;;150.83;71.03;;;10.90;99.90;;;;;;5108357;28;20189;-81
2021/03/04 02:30:14;;;;;;;141.43;66.90;;;10.80;99.90;;;;;;5083922;28;20195;-83
2021/03/04 02:32:46;;;;;;;133.77;65.87;;;10.80;99.90;;;;;;5091309;28;20591;-83
2021/03/04 02:35:26;;;;;;;135.90;64.13;;;10.60;99.90;;;;;;5090445;28;20269;-82
2021/03/04 02:37:56;;;;;;;137.97;65.90;;;10.40;99.90;;;;;;5071696;28;20201;-83
2021/03/04 02:40:24;;;;;;;149.73;70.47;;;10.30;99.90;;;;;;5090316;28;20283;-83
2021/03/04 02:42:52;;;;;;;156.40;70.97;;;10.40;99.90;;;;;;5075892;28;20204;-82
2021/03/04 02:45:22;;;;;;;154.60;70.50;;;10.60;99.90;;;;;;5088035;28;20166;-83
2021/03/04 02:47:48;;;;;;;165.40;73.37;;;10.70;99.90;;;;;;5087220;28;20190;-82
2021/03/04 02:50:15;;;;;;;174.10;75.93;;;10.70;99.90;;;;;;5089075;28;20230;-83
2021/03/04 02:52:41;;;;;;;184.20;75.63;;;10.70;99.90;;;;;;5078148;28;20550;-83
2021/03/04 02:55:08;;;;;;;180.23;75.37;;;10.70;99.90;;;;;;5078269;28;20321;-83
2021/03/04 02:57:38;;;;;;;185.63;78.07;;;10.70;99.90;;;;;;5097541;28;20198;-82
2021/03/04 03:00:06;;;;;;;186.37;75.70;;;10.60;99.90;;;;;;5068272;27;20176;-82
2021/03/04 03:02:34;;;;;;;165.90;71.53;;;10.60;99.90;;;;;;5078274;28;20217;-83
2021/03/04 03:05:00;;;;;;;153.67;70.70;;;10.60;99.90;;;;;;5092948;28;20182;-82
2021/03/04 03:07:26;;;;;;;164.53;70.77;;;10.60;99.90;;;;;;5091708;27;20203;-82
2021/03/04 03:09:52;;;;;;;158.13;69.50;;;10.70;99.90;;;;;;5084631;27;20222;-83
2021/03/04 03:12:19;;;;;;;154.60;69.17;;;10.60;99.90;;;;;;5081553;28;20205;-82
2021/03/04 03:14:45;;;;;;;140.17;64.57;;;10.50;99.90;;;;;;5110856;28;20185;-82
2021/03/04 03:17:11;;;;;;;153.23;66.67;;;10.50;99.90;;;;;;5093498;28;20629;-83
2021/03/04 03:19:37;;;;;;;147.57;69.63;;;10.60;99.90;;;;;;5102458;27;20179;-82
2021/03/04 03:22:03;;;;;;;148.47;66.83;;;10.80;99.90;;;;;;5099132;28;20190;-82
2021/03/04 03:24:29;;;;;;;133.67;60.80;;;10.90;99.90;;;;;;5093097;28;20186;-82
2021/03/04 03:26:55;;;;;;;123.10;60.27;;;10.90;99.90;;;;;;5092777;28;20172;-83
2021/03/04 03:29:21;;;;;;;119.60;58.57;;;10.90;99.90;;;;;;5111570;28;20680;-82
2021/03/04 03:31:49;;;;;;;114.40;55.73;;;10.90;99.90;;;;;;5090273;28;20194;-83
2021/03/04 03:34:15;;;;;;;115.07;56.67;;;10.90;99.90;;;;;;5111727;28;20186;-83
2021/03/04 03:36:42;;;;;;;104.47;52.90;;;10.90;99.90;;;;;;5080850;28;20194;-82
2021/03/04 03:39:08;;;;;;;108.73;53.40;;;10.90;99.90;;;;;;5091143;28;20646;-83
2021/03/04 03:41:36;;;;;;;107.97;53.90;;;10.90;99.90;;;;;;5111286;28;20717;-83
2021/03/04 03:44:01;;;;;;;111.03;56.63;;;11.00;99.90;;;;;;5088902;28;20669;-82
2021/03/04 03:46:34;;;;;;;109.80;55.63;;;11.10;99.90;;;;;;5095106;28;20274;-82
2021/03/04 03:49:07;;;;;;;107.50;54.57;;;11.10;99.90;;;;;;5087227;28;20194;-82
2021/03/04 03:51:34;;;;;;;107.77;54.97;;;11.10;99.90;;;;;;5080832;28;20270;-82
2021/03/04 03:54:03;;;;;;;102.07;53.00;;;11.20;99.90;;;;;;5076422;28;20186;-83
2021/03/04 03:56:30;;;;;;;106.30;55.03;;;11.20;99.90;;;;;;5090131;28;20177;-82
2021/03/04 03:58:59;;;;;;;109.40;54.70;;;11.20;99.90;;;;;;5078286;28;20183;-82
2021/03/04 04:01:29;;;;;;;100.90;52.97;;;11.20;99.90;;;;;;5109207;28;20186;-82
2021/03/04 04:03:58;;;;;;;98.87;50.73;;;11.20;99.90;;;;;;5094321;28;20181;-83
2021/03/04 04:06:27;;;;;;;103.70;51.80;;;11.00;99.90;;;;;;5087125;28;20187;-82
2021/03/04 04:08:54;;;;;;;106.53;52.87;;;10.90;99.90;;;;;;5077911;28;20694;-82
2021/03/04 04:11:21;;;;;;;102.73;53.23;;;11.00;99.90;;;;;;5108412;28;20568;-82
2021/03/04 04:13:47;;;;;;;102.93;53.93;;;11.00;99.90;;;;;;5076837;27;20175;-82
2021/03/04 04:16:15;;;;;;;104.73;51.93;;;11.10;99.90;;;;;;5094019;28;20174;-83
2021/03/04 04:18:41;;;;;;;110.17;54.00;;;11.10;99.90;;;;;;5076238;28;20195;-83
2021/03/04 04:21:07;;;;;;;115.60;55.90;;;11.20;99.90;;;;;;5108469;28;20188;-83
2021/03/04 04:23:34;;;;;;;118.27;57.37;;;11.30;99.90;;;;;;5106690;28;20175;-82
2021/03/04 04:25:59;;;;;;;112.07;57.70;;;11.50;99.90;;;;;;5075912;28;20185;-82
2021/03/04 04:28:26;;;;;;;103.53;53.00;;;11.50;99.90;;;;;;5081572;28;20191;-82
2021/03/04 04:30:51;;;;;;;109.13;54.13;;;11.50;99.90;;;;;;5101568;27;20202;-83
2021/03/04 04:33:17;;;;;;;116.00;55.13;;;11.30;99.90;;;;;;5103610;27;20308;-82
2021/03/04 04:35:43;;;;;;;127.40;56.10;;;11.30;99.90;;;;;;5089333;27;20182;-82
2021/03/04 04:38:10;;;;;;;123.87;55.47;;;11.20;99.90;;;;;;5104092;28;20604;-81
2021/03/04 04:40:36;;;;;;;126.90;58.87;;;11.00;99.90;;;;;;5078931;28;20168;-82
2021/03/04 04:43:02;;;;;;;134.10;58.77;;;11.00;99.90;;;;;;5105425;27;20652;-82
2021/03/04 04:45:27;;;;;;;130.53;56.40;;;11.00;99.90;;;;;;5096143;28;20645;-83
2021/03/04 04:47:53;;;;;;;132.90;57.67;;;10.70;99.90;;;;;;5082953;28;20744;-82
2021/03/04 04:50:19;;;;;;;126.70;54.63;;;10.50;99.90;;;;;;5079064;28;20182;-82
2021/03/04 04:52:45;;;;;;;131.50;53.80;;;10.00;99.90;;;;;;5065741;28;20173;-82
2021/03/04 04:55:11;;;;;;;127.13;53.27;;;9.80;99.90;;;;;;5076878;28;20648;-82
2021/03/04 04:57:36;;;;;;;134.70;53.83;;;9.40;99.90;;;;;;5081039;28;20269;-83
2021/03/04 05:00:05;;;;;;;127.80;53.37;;;9.20;99.90;;;;;;5077458;28;20227;-82
2021/03/04 05:02:31;;;;;;;145.73;57.73;;;9.10;99.90;;;;;;5087974;28;20187;-82
2021/03/04 05:04:56;;;;;;;149.13;56.17;;;9.10;99.90;;;;;;5089734;28;20180;-81
2021/03/04 05:07:22;;;;;;;148.07;56.43;;;9.30;99.90;;;;;;5069432;28;20204;-81
2021/03/04 05:09:48;;;;;;;130.93;54.57;;;9.50;99.90;;;;;;5082530;28;20245;-82
2021/03/04 05:12:14;;;;;;;140.10;57.60;;;9.40;99.90;;;;;;5102100;27;20210;-82
2021/03/04 05:14:40;;;;;;;155.33;57.03;;;9.30;99.90;;;;;;5103341;28;20672;-81
2021/03/04 05:17:06;;;;;;;165.87;59.97;;;9.20;99.90;;;;;;5087334;28;20772;-81
2021/03/04 05:19:32;;;;;;;162.40;60.07;;;9.00;99.90;;;;;;5090526;28;20587;-82
2021/03/04 05:21:58;;;;;;;194.17;61.13;;;8.90;99.90;;;;;;5090639;28;20217;-81
2021/03/04 05:24:24;;;;;;;163.90;58.33;;;8.90;99.90;;;;;;5105555;28;20178;-81
2021/03/04 05:26:50;;;;;;;157.77;57.60;;;8.80;99.90;;;;;;5082132;28;20204;-82
2021/03/04 05:29:16;;;;;;;195.17;61.60;;;8.50;99.90;;;;;;5073350;27;20189;-81
2021/03/04 05:31:41;;;;;;;183.77;60.57;;;8.50;99.90;;;;;;5106052;28;20214;-81
2021/03/04 05:34:07;;;;;;;180.53;63.17;;;8.80;99.90;;;;;;5110193;27;20209;-81
2021/03/04 05:36:33;;;;;;;185.83;64.13;;;8.70;99.90;;;;;;5090728;27;20685;-81
2021/03/04 05:38:58;;;;;;;178.43;65.17;;;9.00;99.90;;;;;;5088193;28;20238;-81
2021/03/04 05:41:26;;;;;;;173.20;62.13;;;9.10;99.90;;;;;;5071401;28;20225;-83
2021/03/04 05:43:52;;;;;;;173.97;62.30;;;8.80;99.90;;;;;;5066065;28;20204;-82
2021/03/04 05:46:21;;;;;;;186.03;67.20;;;8.60;99.90;;;;;;5094348;27;20173;-82
2021/03/04 05:48:49;;;;;;;201.77;67.07;;;8.90;99.90;;;;;;5080856;28;20724;-82
2021/03/04 05:51:18;;;;;;;199.13;64.03;;;9.10;99.90;;;;;;5065162;28;20218;-81
2021/03/04 05:53:47;;;;;;;205.10;63.90;;;9.10;99.90;;;;;;5087335;28;20262;-81
2021/03/04 05:56:17;;;;;;;180.37;62.47;;;8.90;99.90;;;;;;5084775;27;20219;-80
2021/03/04 05:58:47;;;;;;;200.77;61.87;;;8.60;99.90;;;;;;5089705;28;20268;-82
2021/03/04 06:01:13;;;;;;;182.45;77.38;;;8.70;99.90;;;;;;5105283;28;20423;-82
2021/03/04 06:03:43;;;;;;;164.20;65.43;;;8.50;99.90;;;;;;5091126;28;20166;-82
2021/03/04 06:06:09;;;;;;;190.37;60.13;;;8.70;99.90;;;;;;5072121;28;20184;-82
2021/03/04 06:08:35;;;;;;;154.73;58.80;;;8.90;99.90;;;;;;5092903;28;20269;-82
2021/03/04 06:11:02;;;;;;;165.60;60.60;;;8.90;99.90;;;;;;5070489;28;20261;-83
2021/03/04 06:13:28;;;;;;;174.47;60.47;;;8.90;99.90;;;;;;5086400;28;20189;-83
2021/03/04 06:15:55;;;;;;;166.93;61.43;;;9.10;99.90;;;;;;5089217;28;20659;-82
2021/03/04 06:18:21;;;;;;;154.80;57.00;;;9.30;99.90;;;;;;5086762;28;20316;-83
2021/03/04 06:20:47;;;;;;;149.67;56.80;;;9.30;99.90;;;;;;5069141;28;20206;-83
2021/03/04 06:23:13;;;;;;;149.43;55.93;;;9.10;99.90;;;;;;5050558;28;20194;-83
2021/03/04 06:25:39;;;;;;;149.70;56.77;;;9.00;99.90;;;;;;5084066;28;20663;-83
2021/03/04 06:28:08;;;;;;;143.87;55.67;;;9.10;99.90;;;;;;5091435;28;20183;-84
2021/03/04 06:30:36;;;;;;;140.50;55.70;;;9.30;99.90;;;;;;5066486;28;20182;-83
2021/03/04 06:33:05;;;;;;;138.77;55.67;;;9.40;99.90;;;;;;5089408;28;20177;-84
2021/03/04 06:35:42;;;;;;;141.67;54.97;;;9.30;99.90;;;;;;5074272;28;20173;-83
2021/03/04 06:38:14;;;;;;;142.00;55.60;;;9.30;99.90;;;;;;5089292;28;20220;-83
2021/03/04 06:40:40;;;;;;;156.17;57.80;;;9.40;99.90;;;;;;5074001;28;20179;-82
2021/03/04 06:43:06;;;;;;;144.47;58.37;;;9.60;99.90;;;;;;5054575;28;20202;-83
2021/03/04 06:45:36;;;;;;;159.53;59.60;;;9.70;99.90;;;;;;5071653;28;20238;-84
2021/03/04 06:48:08;;;;;;;166.60;60.77;;;9.70;99.90;;;;;;5049472;28;20196;-84
2021/03/04 06:50:34;;;;;;;161.37;59.63;;;9.90;99.90;;;;;;5058697;28;20185;-84
2021/03/04 06:53:30;;;;;;;169.07;61.57;;;10.00;99.90;;;;;;5090330;28;20249;-84
2021/03/04 06:56:02;;;;;;;178.77;62.80;;;9.90;99.90;;;;;;5074415;28;20204;-84
2021/03/04 06:58:38;;;;;;;192.13;66.93;;;9.70;99.90;;;;;;5087476;28;20336;-85
2021/03/04 07:01:16;;;;;;;200.57;67.70;;;9.40;99.90;;;;;;5086055;28;20175;-84
2021/03/04 07:03:50;;;;;;;219.60;70.77;;;9.30;99.90;;;;;;5051450;28;20178;-84
2021/03/04 07:06:17;;;;;;;203.40;66.23;;;9.20;99.90;;;;;;5052973;28;20607;-84
2021/03/04 07:08:45;;;;;;;182.70;64.10;;;9.20;99.90;;;;;;5053115;28;20180;-84
2021/03/04 07:11:19;;;;;;;166.90;59.23;;;9.20;99.90;;;;;;5087720;28;20639;-84
2021/03/04 07:13:45;;;;;;;166.80;58.17;;;9.20;99.90;;;;;;5054327;28;20667;-83
2021/03/04 07:16:31;;;;;;;146.17;55.00;;;9.30;99.90;;;;;;5048349;28;20658;-85
2021/03/04 07:18:59;;;;;;;140.23;54.83;;;9.20;99.90;;;;;;5054592;28;20204;-84
2021/03/04 07:21:28;;;;;;;125.90;50.00;;;9.30;99.90;;;;;;5055811;28;20188;-84
2021/03/04 07:23:54;;;;;;;93.87;40.93;;;9.30;99.90;;;;;;5072124;28;20182;-84
2021/03/04 07:26:21;;;;;;;98.50;43.23;;;9.30;99.90;;;;;;5058113;28;20307;-84
2021/03/04 07:28:50;;;;;;;98.73;42.33;;;9.10;99.90;;;;;;5076549;28;20185;-84
2021/03/04 07:31:15;;;;;;;78.60;37.87;;;9.20;99.90;;;;;;5074672;28;20185;-85
2021/03/04 07:33:49;;;;;;;76.67;37.40;;;9.10;99.90;;;;;;5072908;28;20187;-85
2021/03/04 07:36:20;;;;;;;76.87;38.27;;;8.60;99.90;;;;;;5092957;28;20185;-83
2021/03/04 07:38:59;;;;;;;87.07;39.60;;;8.70;99.90;;;;;;5076980;28;20207;-84
2021/03/04 07:41:35;;;;;;;72.17;36.43;;;8.70;99.90;;;;;;5077881;28;20197;-84
2021/03/04 07:44:00;;;;;;;65.97;33.50;;;8.80;99.90;;;;;;5057984;28;20600;-85
2021/03/04 07:46:36;;;;;;;72.13;34.87;;;8.80;99.90;;;;;;5064636;28;20176;-84
2021/03/04 07:49:07;;;;;;;60.53;31.40;;;8.90;99.90;;;;;;5061427;28;20183;-85
2021/03/04 07:51:44;;;;;;;54.87;28.97;;;8.70;99.90;;;;;;5059864;28;20199;-84
2021/03/04 07:54:11;;;;;;;62.90;33.57;;;8.60;99.90;;;;;;5074045;28;20179;-85
2021/03/04 07:56:37;;;;;;;66.50;31.80;;;8.70;99.90;;;;;;5077285;28;20535;-85
2021/03/04 07:59:14;;;;;;;57.03;29.00;;;8.70;99.90;;;;;;5073237;28;20180;-85
2021/03/04 08:01:41;;;;;;;67.83;30.50;;;8.70;99.90;;;;;;5074202;28;20192;-85
2021/03/04 08:04:18;;;;;;;67.83;33.67;;;8.40;99.90;;;;;;5073816;28;20168;-85
2021/03/04 08:06:44;;;;;;;72.57;34.83;;;8.40;99.90;;;;;;5093033;28;20734;-85
2021/03/04 08:09:10;;;;;;;65.70;32.87;;;8.40;99.90;;;;;;5082878;27;20340;-85
2021/03/04 08:11:36;;;;;;;71.67;34.30;;;8.50;99.90;;;;;;5077634;28;20225;-85
2021/03/04 08:14:14;;;;;;;76.93;37.47;;;8.60;99.90;;;;;;5095876;28;21000;-85
2021/03/04 08:16:40;;;;;;;75.87;35.87;;;8.60;99.90;;;;;;5099901;27;20184;-85
2021/03/04 08:19:06;;;;;;;87.10;42.13;;;8.70;99.90;;;;;;5078337;28;20201;-85
2021/03/04 08:21:32;;;;;;;88.33;39.60;;;8.90;99.90;;;;;;5092711;28;20166;-85
2021/03/04 08:23:58;;;;;;;82.10;35.37;;;9.00;99.90;;;;;;5093733;28;20263;-85
2021/03/04 08:26:29;;;;;;;81.63;35.07;;;8.90;99.90;;;;;;5078939;28;20186;-85
2021/03/04 08:29:06;;;;;;;72.87;32.77;;;8.80;99.90;;;;;;5114517;28;20182;-85
2021/03/04 08:31:34;;;;;;;62.97;28.83;;;8.70;99.90;;;;;;5094782;28;20182;-85
2021/03/04 08:34:00;;;;;;;50.93;24.00;;;8.80;99.90;;;;;;5095975;28;20205;-85
2021/03/04 08:36:37;;;;;;;43.37;22.47;;;8.60;99.90;;;;;;5081629;28;20216;-85
2021/03/04 08:39:02;;;;;;;40.90;21.33;;;8.60;99.90;;;;;;5081881;27;20207;-84
2021/03/04 08:41:28;;;;;;;39.60;20.37;;;8.60;99.90;;;;;;5093158;28;20173;-85
2021/03/04 08:43:54;;;;;;;42.33;21.10;;;8.40;99.90;;;;;;5094895;27;20529;-85
2021/03/04 08:46:19;;;;;;;42.67;21.63;;;8.50;99.90;;;;;;5113440;27;20175;-85
2021/03/04 08:48:46;;;;;;;42.90;21.20;;;8.70;99.90;;;;;;5085043;28;20399;-85
2021/03/04 08:51:14;;;;;;;41.33;22.70;;;8.80;99.90;;;;;;5095860;27;20761;-85
2021/03/04 08:53:40;;;;;;;49.80;28.00;;;8.90;99.90;;;;;;5079205;28;20206;-85
2021/03/04 08:56:07;;;;;;;44.73;23.87;;;9.10;99.90;;;;;;5078501;28;20219;-85
2021/03/04 08:58:40;;;;;;;50.43;26.63;;;9.20;99.90;;;;;;5079149;28;20666;-85
2021/03/04 09:01:06;;;;;;;55.63;27.00;;;9.30;99.90;;;;;;5094241;27;20221;-84
2021/03/04 09:03:36;;;;;;;59.90;29.17;;;9.10;99.90;;;;;;5113394;27;20206;-85
2021/03/04 09:06:13;;;;;;;63.97;30.10;;;9.10;99.90;;;;;;5077549;28;20179;-85
2021/03/04 09:08:50;;;;;;;64.37;29.70;;;9.00;99.90;;;;;;5093151;28;20190;-84
2021/03/04 09:11:30;;;;;;;70.07;32.07;;;9.00;99.90;;;;;;5055193;28;20187;-84
2021/03/04 09:14:09;;;;;;;64.43;30.50;;;8.90;99.90;;;;;;5068939;28;20207;-85
2021/03/04 09:16:38;;;;;;;68.27;29.70;;;8.80;99.90;;;;;;5054921;28;21124;-84
2021/03/04 09:19:04;;;;;;;72.23;32.30;;;8.70;99.90;;;;;;5055493;28;20194;-85
2021/03/04 09:21:30;;;;;;;64.93;30.10;;;8.70;99.90;;;;;;5055868;28;20183;-85
2021/03/04 09:23:57;;;;;;;61.80;28.40;;;8.80;99.90;;;;;;5061219;28;20175;-84
2021/03/04 09:26:31;;;;;;;62.37;27.57;;;8.80;99.90;;;;;;5072664;28;20177;-85
2021/03/04 09:28:57;;;;;;;57.27;25.87;;;8.80;99.90;;;;;;5062167;28;20187;-85
2021/03/04 09:31:25;;;;;;;75.93;34.47;;;8.90;99.90;;;;;;5056165;28;20193;-84
2021/03/04 09:34:02;;;;;;;56.90;25.87;;;9.00;99.90;;;;;;5071421;28;20183;-84
2021/03/04 09:36:28;;;;;;;45.20;21.73;;;9.00;99.90;;;;;;5066521;28;20197;-85
2021/03/04 09:38:55;;;;;;;51.70;22.17;;;8.80;99.90;;;;;;5055734;28;20611;-84
2021/03/04 09:41:23;;;;;;;43.53;19.20;;;8.70;99.90;;;;;;5054308;28;20547;-84
2021/03/04 09:44:07;;;;;;;43.07;18.40;;;8.70;99.90;;;;;;5062783;28;20202;-85
2021/03/04 09:46:40;;;;;;;35.47;15.47;;;8.70;99.90;;;;;;5065185;28;20270;-85
2021/03/04 09:49:20;;;;;;;37.70;15.93;;;8.60;99.90;;;;;;5069807;28;20554;-84
2021/03/04 09:51:46;;;;;;;34.67;15.23;;;8.70;99.90;;;;;;5067082;28;20209;-85
2021/03/04 09:54:24;;;;;;;36.03;15.07;;;8.70;99.90;;;;;;5073371;28;20264;-84
2021/03/04 09:57:04;;;;;;;34.20;14.60;;;8.70;99.90;;;;;;5070317;28;20233;-85
2021/03/04 09:59:30;;;;;;;38.07;15.37;;;8.40;99.90;;;;;;5067842;28;20180;-85
2021/03/04 10:01:56;;;;;;;38.20;15.37;;;8.60;99.90;;;;;;5066852;28;20194;-85
2021/03/04 10:04:26;;;;;;;39.43;16.53;;;8.40;99.90;;;;;;5050589;28;20550;-85
2021/03/04 10:06:52;;;;;;;40.80;17.07;;;8.40;99.90;;;;;;5070639;28;20180;-84
2021/03/04 10:09:25;;;;;;;48.67;17.03;;;8.50;99.90;;;;;;5073830;27;20279;-84
2021/03/04 10:11:51;;;;;;;46.03;18.13;;;8.60;99.90;;;;;;5108982;27;20178;-86
2021/03/04 10:14:17;;;;;;;51.50;19.50;;;8.60;99.90;;;;;;5108232;27;20202;-85
2021/03/04 10:16:52;;;;;;;71.97;31.27;;;8.80;99.90;;;;;;5113155;27;20172;-85
2021/03/04 10:19:18;;;;;;;60.13;22.40;;;9.00;99.90;;;;;;5086872;28;20178;-85
2021/03/04 10:21:45;;;;;;;98.40;43.50;;;9.10;99.90;;;;;;5111398;27;20641;-85
2021/03/04 10:24:10;;;;;;;136.53;62.07;;;9.20;99.90;;;;;;5098204;27;20619;-85
2021/03/04 10:26:36;;;;;;;91.33;40.60;;;9.20;99.90;;;;;;5091192;27;20198;-85
2021/03/04 10:29:02;;;;;;;85.93;34.00;;;9.30;99.90;;;;;;5121750;27;20222;-85
2021/03/04 10:31:27;;;;;;;48.70;20.60;;;9.40;99.90;;;;;;5109971;27;20202;-85
2021/03/04 10:33:53;;;;;;;51.87;18.53;;;9.50;99.90;;;;;;5120083;27;20176;-85
2021/03/04 10:36:19;;;;;;;54.93;18.30;;;9.40;99.90;;;;;;5094540;27;20196;-85
2021/03/04 10:38:44;;;;;;;45.40;16.93;;;9.40;99.90;;;;;;5097007;27;20197;-85
2021/03/04 10:41:10;;;;;;;42.67;15.93;;;9.00;99.90;;;;;;5112756;27;20179;-84
2021/03/04 10:43:36;;;;;;;41.83;15.87;;;8.80;99.90;;;;;;5108646;28;20183;-84
2021/03/04 10:46:02;;;;;;;46.43;16.73;;;8.80;99.90;;;;;;5106073;28;20198;-84
2021/03/04 10:48:27;;;;;;;44.23;16.20;;;8.90;99.90;;;;;;5129273;28;20190;-85
2021/03/04 10:50:53;;;;;;;48.30;17.97;;;9.10;99.90;;;;;;5123178;28;20235;-84
2021/03/04 10:53:19;;;;;;;44.57;17.23;;;9.30;99.90;;;;;;5131448;28;20225;-84
2021/03/04 10:55:44;;;;;;;44.53;16.83;;;9.30;99.90;;;;;;5093916;28;20257;-85
2021/03/04 10:58:10;;;;;;;41.40;15.53;;;9.00;99.90;;;;;;5128224;28;20266;-84
2021/03/04 11:00:36;;;;;;;41.87;15.67;;;9.00;99.90;;;;;;5102079;28;20184;-85
2021/03/04 11:03:02;;;;;;;42.83;16.60;;;9.00;99.90;;;;;;5092071;28;20189;-85
2021/03/04 11:05:28;;;;;;;39.93;14.63;;;8.70;99.90;;;;;;5096842;28;20273;-85
2021/03/04 11:07:53;;;;;;;43.23;14.77;;;8.60;99.90;;;;;;5093244;28;20265;-85
2021/03/04 11:10:19;;;;;;;43.40;15.47;;;8.70;99.90;;;;;;5093168;28;20221;-85
2021/03/04 11:12:45;;;;;;;44.77;15.37;;;8.70;99.90;;;;;;5094693;27;20190;-85
2021/03/04 11:15:11;;;;;;;41.00;14.33;;;8.70;99.90;;;;;;5114326;27;20214;-85
2021/03/04 11:17:37;;;;;;;39.37;13.90;;;8.70;99.90;;;;;;5113895;27;20217;-86
2021/03/04 11:20:04;;;;;;;37.53;13.93;;;8.80;99.90;;;;;;5114255;27;20196;-85
2021/03/04 11:22:29;;;;;;;35.73;13.13;;;8.80;99.90;;;;;;5109458;27;20177;-85
2021/03/04 11:24:55;;;;;;;36.73;13.53;;;8.80;99.90;;;;;;5092488;27;20180;-85
2021/03/04 11:27:21;;;;;;;38.30;13.97;;;8.90;99.90;;;;;;5093589;27;20672;-85
2021/03/04 11:29:47;;;;;;;36.87;14.33;;;8.90;99.90;;;;;;5091698;27;20201;-85
2021/03/04 11:32:14;;;;;;;36.83;13.77;;;8.90;99.90;;;;;;5092795;27;20593;-85
2021/03/04 11:34:40;;;;;;;36.13;13.27;;;9.00;99.90;;;;;;5112669;27;20178;-86
2021/03/04 11:37:05;;;;;;;31.13;12.30;;;9.00;99.90;;;;;;5094255;27;20206;-84
2021/03/04 11:39:31;;;;;;;35.20;12.97;;;9.00;99.90;;;;;;5096194;27;20178;-85
2021/03/04 11:42:00;;;;;;;33.03;13.13;;;9.10;99.90;;;;;;5099565;27;20208;-85
2021/03/04 11:44:25;;;;;;;34.20;13.40;;;9.10;99.90;;;;;;5110676;27;20182;-85
2021/03/04 11:46:51;;;;;;;29.90;12.30;;;9.10;99.90;;;;;;5115446;27;20174;-85
2021/03/04 11:49:17;;;;;;;27.90;10.73;;;9.10;99.90;;;;;;5110980;27;20186;-85
2021/03/04 11:51:42;;;;;;;26.47;10.83;;;8.70;99.90;;;;;;5128854;27;20739;-85
2021/03/04 11:54:09;;;;;;;32.67;10.83;;;8.80;99.90;;;;;;5110672;27;20873;-84
2021/03/04 11:56:36;;;;;;;25.57;10.37;;;8.80;99.90;;;;;;5113104;27;20174;-85
2021/03/04 11:59:05;;;;;;;27.40;9.70;;;9.00;99.90;;;;;;5097441;27;20202;-85
2021/03/04 12:01:32;;;;;;;27.97;10.33;;;8.80;99.90;;;;;;5112219;27;20186;-85
2021/03/04 12:03:58;;;;;;;25.63;10.60;;;8.80;99.90;;;;;;5111655;27;20193;-85
2021/03/04 12:06:23;;;;;;;25.13;9.40;;;8.60;99.90;;;;;;5114603;27;20175;-84
2021/03/04 12:08:49;;;;;;;28.33;10.77;;;8.70;99.90;;;;;;5088985;27;20235;-84
2021/03/04 12:11:14;;;;;;;25.67;10.87;;;8.60;99.90;;;;;;5084213;28;20184;-85
2021/03/04 12:13:40;;;;;;;26.77;9.77;;;8.70;99.90;;;;;;5087441;28;20190;-84
2021/03/04 12:16:08;;;;;;;26.20;10.13;;;8.70;99.90;;;;;;5057912;28;20685;-85
2021/03/04 12:18:33;;;;;;;27.00;10.73;;;8.90;99.90;;;;;;5073154;28;20708;-86
2021/03/04 12:21:00;;;;;;;26.23;10.40;;;8.80;99.90;;;;;;5055777;28;20271;-85
2021/03/04 12:23:26;;;;;;;26.87;10.30;;;8.80;99.90;;;;;;5068722;28;20547;-85
2021/03/04 12:25:52;;;;;;;25.90;10.27;;;8.80;99.90;;;;;;5067343;28;20189;-85
2021/03/04 12:28:18;;;;;;;27.80;10.37;;;8.90;99.90;;;;;;5087391;28;20186;-85
2021/03/04 12:30:44;;;;;;;28.17;11.67;;;8.80;99.90;;;;;;5069527;28;20526;-85
2021/03/04 12:33:11;;;;;;;31.00;11.93;;;8.90;99.90;;;;;;5068986;28;20250;-84